Time;durP1;ratioP1;P1;durP2;ratioP2;P2;SDS_P1;SDS_P2;PMS_P1;PMS_P2;Temp;Humidity;BMP_temperature;BMP_pressure;BME280_temperature;BME280_humidity;BME280_pressure;Samples;Min_cycle;Max_cycle;Signal;HPM_P1;HPM_P2
2023/10/15 00:00:25;;;;;;;3.57;1.37;;;;;;;7.78;100.00;98407.72;5055797;28;20250;-81
2023/10/15 00:02:53;;;;;;;3.73;1.10;;;;;;;7.76;100.00;98399.03;5055992;28;20224;-82
2023/10/15 00:05:21;;;;;;;3.17;1.00;;;;;;;7.77;100.00;98398.97;5056662;28;20211;-82
2023/10/15 00:07:50;;;;;;;4.43;1.10;;;;;;;7.76;100.00;98399.91;5056642;28;20204;-82
2023/10/15 00:10:18;;;;;;;3.50;1.33;;;;;;;7.72;100.00;98405.41;5056028;28;20212;-82
2023/10/15 00:12:46;;;;;;;2.33;0.97;;;;;;;7.66;100.00;98400.47;5055702;28;20234;-82
2023/10/15 00:15:15;;;;;;;1.90;1.10;;;;;;;7.58;100.00;98397.38;5057194;28;20406;-83
2023/10/15 00:17:42;;;;;;;1.53;1.20;;;;;;;7.51;100.00;98398.66;5057187;28;20239;-82
2023/10/15 00:20:10;;;;;;;2.23;1.10;;;;;;;7.45;100.00;98404.22;5056924;28;20212;-82
2023/10/15 00:22:38;;;;;;;3.03;1.40;;;;;;;7.40;100.00;98401.84;5056343;28;20326;-82
2023/10/15 00:25:09;;;;;;;2.57;1.10;;;;;;;7.41;100.00;98402.72;5056386;28;20207;-82
2023/10/15 00:27:36;;;;;;;4.37;1.33;;;;;;;7.32;100.00;98400.53;5056852;28;20212;-82
2023/10/15 00:30:05;;;;;;;2.77;1.20;;;;;;;7.34;100.00;98396.09;5056428;28;20207;-82
2023/10/15 00:32:32;;;;;;;1.43;1.00;;;;;;;7.34;100.00;98403.97;5055639;28;20224;-82
2023/10/15 00:34:59;;;;;;;3.00;1.20;;;;;;;7.29;100.00;98403.34;5055537;28;20239;-82
2023/10/15 00:37:26;;;;;;;1.10;1.00;;;;;;;7.33;100.00;98399.63;5055217;28;20610;-82
2023/10/15 00:39:52;;;;;;;2.97;1.13;;;;;;;7.31;100.00;98401.47;5055765;28;20234;-82
2023/10/15 00:42:22;;;;;;;2.33;1.37;;;;;;;7.41;100.00;98398.28;5055262;28;20235;-82
2023/10/15 00:44:48;;;;;;;3.90;1.10;;;;;;;7.43;100.00;98399.06;5056187;28;20212;-82
2023/10/15 00:47:16;;;;;;;2.83;0.90;;;;;;;7.43;100.00;98391.19;5055668;28;20208;-83
2023/10/15 00:49:42;;;;;;;2.07;1.20;;;;;;;7.50;100.00;98394.31;5054917;28;20206;-82
2023/10/15 00:52:10;;;;;;;3.20;1.33;;;;;;;7.62;100.00;98389.28;5055356;28;20224;-82
2023/10/15 00:54:38;;;;;;;2.87;1.50;;;;;;;7.77;100.00;98384.97;5055738;28;20241;-82
2023/10/15 00:57:25;;;;;;;1.83;1.33;;;;;;;7.89;100.00;98379.06;5055105;28;20282;-82
2023/10/15 00:59:54;;;;;;;1.87;1.30;;;;;;;7.97;100.00;98384.72;5054972;28;20204;-82
2023/10/15 01:02:23;;;;;;;1.87;1.10;;;;;;;8.02;100.00;98380.91;5054649;28;20270;-82
2023/10/15 01:04:57;;;;;;;3.10;1.10;;;;;;;8.13;100.00;98369.78;5055346;28;20211;-82
2023/10/15 01:07:32;;;;;;;2.57;1.10;;;;;;;8.23;100.00;98378.91;5055481;28;20245;-82
2023/10/15 01:10:00;;;;;;;4.40;1.27;;;;;;;8.29;100.00;98363.63;5055545;28;20212;-82
2023/10/15 01:12:31;;;;;;;3.33;1.40;;;;;;;8.38;100.00;98362.25;5054445;28;20256;-82
2023/10/15 01:15:00;;;;;;;4.83;1.47;;;;;;;8.43;100.00;98361.03;5055227;28;20302;-82
2023/10/15 01:17:36;;;;;;;1.40;0.90;;;;;;;8.44;100.00;98351.38;5054880;28;20214;-82
2023/10/15 01:20:07;;;;;;;2.03;1.13;;;;;;;8.49;100.00;98350.16;5054870;28;20620;-82
2023/10/15 01:22:35;;;;;;;3.10;1.43;;;;;;;8.43;100.00;98350.50;5053883;28;20734;-82
2023/10/15 01:25:17;;;;;;;2.07;1.20;;;;;;;8.44;100.00;98352.22;5055048;28;20211;-82
2023/10/15 01:27:44;;;;;;;3.80;1.30;;;;;;;8.43;100.00;98355.78;5055508;28;20239;-82
2023/10/15 01:30:17;;;;;;;3.53;1.33;;;;;;;8.47;100.00;98356.44;5054839;28;20207;-82
2023/10/15 01:32:44;;;;;;;3.27;1.30;;;;;;;8.52;100.00;98349.13;5055058;28;20238;-82
2023/10/15 01:35:11;;;;;;;3.27;1.37;;;;;;;8.56;100.00;98355.94;5055097;28;20709;-82
2023/10/15 01:37:44;;;;;;;6.27;1.20;;;;;;;8.58;100.00;98351.41;5054559;28;20222;-82
2023/10/15 01:40:27;;;;;;;5.60;1.07;;;;;;;8.56;100.00;98355.94;5054970;28;20262;-83
2023/10/15 01:42:54;;;;;;;4.63;1.33;;;;;;;8.57;100.00;98355.00;5054319;28;20279;-81
2023/10/15 01:45:31;;;;;;;2.40;1.00;;;;;;;8.52;100.00;98363.13;5054922;28;20623;-81
2023/10/15 01:48:05;;;;;;;2.33;1.10;;;;;;;8.52;100.00;98364.94;5055627;28;20215;-81
2023/10/15 01:50:40;;;;;;;2.90;1.43;;;;;;;8.54;100.00;98363.94;5055184;28;20239;-81
2023/10/15 01:53:07;;;;;;;3.77;1.37;;;;;;;8.52;100.00;98372.84;5053897;28;20238;-81
2023/10/15 01:55:35;;;;;;;3.50;1.43;;;;;;;8.55;100.00;98367.38;5054654;28;20655;-82
2023/10/15 01:58:04;;;;;;;5.60;1.60;;;;;;;8.60;100.00;98367.97;5055315;28;20239;-82
2023/10/15 02:00:42;;;;;;;5.87;1.47;;;;;;;8.61;100.00;98375.81;5054700;28;20204;-81
2023/10/15 02:03:10;;;;;;;2.80;1.70;;;;;;;8.68;100.00;98365.75;5054464;28;20211;-82
2023/10/15 02:05:41;;;;;;;3.33;1.50;;;;;;;8.74;100.00;98360.97;5054999;28;20576;-81
2023/10/15 02:08:08;;;;;;;1.93;1.30;;;;;;;8.73;100.00;98361.06;5054762;28;20212;-81
2023/10/15 02:10:39;;;;;;;3.90;1.53;;;;;;;8.73;100.00;98359.28;5054885;28;20211;-81
2023/10/15 02:13:05;;;;;;;3.80;1.57;;;;;;;8.80;100.00;98357.13;5053822;28;20239;-81
2023/10/15 02:15:37;;;;;;;2.03;1.43;;;;;;;8.81;100.00;98358.84;5054478;28;20310;-81
2023/10/15 02:18:05;;;;;;;2.63;1.50;;;;;;;8.82;100.00;98352.63;5054562;28;20323;-81
2023/10/15 02:20:44;;;;;;;4.27;1.20;;;;;;;8.81;100.00;98350.94;5055643;28;20233;-81
2023/10/15 02:23:10;;;;;;;3.93;1.60;;;;;;;8.82;100.00;98352.63;5062912;28;20285;-81
2023/10/15 02:25:45;;;;;;;2.57;1.23;;;;;;;8.81;100.00;98348.31;5065847;28;20217;-81
2023/10/15 02:28:11;;;;;;;1.27;1.13;;;;;;;8.76;100.00;98345.09;5066320;28;20207;-81
2023/10/15 02:30:40;;;;;;;2.37;1.30;;;;;;;8.73;100.00;98347.88;5065840;28;20222;-83
2023/10/15 02:33:06;;;;;;;3.47;1.50;;;;;;;8.74;100.00;98349.56;5066480;28;20669;-82
2023/10/15 02:35:39;;;;;;;4.53;1.57;;;;;;;8.74;100.00;98347.81;5065978;28;20446;-81
2023/10/15 02:38:10;;;;;;;3.80;1.30;;;;;;;8.72;100.00;98348.81;5060222;28;20286;-82
2023/10/15 02:40:55;;;;;;;1.87;1.20;;;;;;;8.71;100.00;98344.50;5060238;28;20214;-82
2023/10/15 02:43:24;;;;;;;1.97;1.10;;;;;;;8.72;100.00;98347.06;5058414;28;20234;-82
2023/10/15 02:45:50;;;;;;;3.47;1.40;;;;;;;8.73;100.00;98347.88;5059961;28;20208;-81
2023/10/15 02:48:19;;;;;;;2.10;1.20;;;;;;;8.73;100.00;98339.97;5059599;28;20216;-81
2023/10/15 02:50:58;;;;;;;2.30;1.60;;;;;;;8.70;100.00;98350.72;5060063;28;20211;-83
2023/10/15 02:53:24;;;;;;;2.03;1.33;;;;;;;8.71;100.00;98348.00;5059228;28;20210;-83
2023/10/15 02:55:52;;;;;;;3.13;1.60;;;;;;;8.73;100.00;98340.84;5060500;28;20233;-84
2023/10/15 02:58:22;;;;;;;2.50;1.30;;;;;;;8.73;100.00;98343.47;5060084;28;20228;-84
2023/10/15 03:00:51;;;;;;;4.03;1.40;;;;;;;8.73;100.00;98348.75;5059127;28;20232;-83
2023/10/15 03:03:32;;;;;;;3.07;1.50;;;;;;;8.71;100.00;98348.00;5058372;28;20204;-83
2023/10/15 03:05:59;;;;;;;3.37;1.33;;;;;;;8.75;100.00;98353.94;5058656;28;20303;-84
2023/10/15 03:08:31;;;;;;;2.23;1.50;;;;;;;8.71;100.00;98349.78;5059241;28;20208;-82
2023/10/15 03:11:07;;;;;;;3.00;1.30;;;;;;;8.72;100.00;98346.19;5059005;28;20235;-84
2023/10/15 03:13:44;;;;;;;3.53;1.70;;;;;;;8.71;100.00;98345.34;5058481;28;20265;-83
2023/10/15 03:16:11;;;;;;;2.90;1.27;;;;;;;8.70;100.00;98350.72;5058391;28;20215;-82
2023/10/15 03:18:37;;;;;;;3.63;1.60;;;;;;;8.64;100.00;98358.97;5059062;28;20616;-82
2023/10/15 03:21:14;;;;;;;3.00;1.40;;;;;;;8.58;100.00;98354.06;5059012;28;20232;-82
2023/10/15 03:23:41;;;;;;;2.60;1.50;;;;;;;8.52;100.00;98355.25;5059074;28;20211;-82
2023/10/15 03:26:17;;;;;;;2.30;1.50;;;;;;;8.53;100.00;98350.84;5058723;28;20209;-82
2023/10/15 03:28:45;;;;;;;2.87;1.63;;;;;;;8.60;100.00;98352.16;5058887;28;20203;-83
2023/10/15 03:31:14;;;;;;;3.37;1.30;;;;;;;8.66;100.00;98349.19;5058360;28;20552;-83
2023/10/15 03:33:58;;;;;;;1.97;1.40;;;;;;;8.62;100.00;98342.41;5057546;28;20204;-83
2023/10/15 03:36:25;;;;;;;4.87;1.70;;;;;;;8.64;100.00;98343.16;5058245;28;20243;-83
2023/10/15 03:38:51;;;;;;;4.50;1.97;;;;;;;8.67;100.00;98348.25;5058162;28;20318;-83
2023/10/15 03:41:26;;;;;;;2.67;1.60;;;;;;;8.72;100.00;98340.91;5057875;28;20228;-83
2023/10/15 03:43:53;;;;;;;3.70;1.50;;;;;;;8.68;100.00;98356.06;5058115;28;20211;-83
2023/10/15 03:46:20;;;;;;;4.33;1.80;;;;;;;8.74;100.00;98349.56;5057257;28;20307;-83
2023/10/15 03:48:49;;;;;;;3.00;1.67;;;;;;;8.77;100.00;98344.13;5058113;28;20208;-82
2023/10/15 03:51:20;;;;;;;4.60;1.97;;;;;;;8.90;100.00;98350.38;5058118;28;20349;-82
2023/10/15 03:53:49;;;;;;;1.97;1.37;;;;;;;8.93;100.00;98355.50;5057414;28;20235;-83
2023/10/15 03:56:18;;;;;;;4.77;1.50;;;;;;;8.99;100.00;98350.69;5058559;28;20212;-83
2023/10/15 03:58:46;;;;;;;1.80;1.30;;;;;;;8.99;100.00;98350.69;5058609;28;20244;-82
2023/10/15 04:01:16;;;;;;;2.50;1.70;;;;;;;9.00;100.00;98357.66;5058367;28;20228;-82
2023/10/15 04:03:47;;;;;;;2.27;1.50;;;;;;;9.04;100.00;98359.19;5057644;28;20927;-83
2023/10/15 04:06:14;;;;;;;3.20;1.60;;;;;;;9.02;100.00;98357.56;5059079;28;20239;-82
2023/10/15 04:08:58;;;;;;;2.90;1.70;;;;;;;8.95;100.00;98353.59;5058728;28;20256;-83
2023/10/15 04:11:29;;;;;;;3.43;1.40;;;;;;;8.93;100.00;98360.75;5058496;28;20232;-82
2023/10/15 04:13:59;;;;;;;1.87;1.37;;;;;;;8.81;100.00;98350.94;5057547;28;20215;-82
2023/10/15 04:16:25;;;;;;;3.10;1.70;;;;;;;8.71;100.00;98355.03;5057207;28;20210;-82
2023/10/15 04:18:51;;;;;;;3.03;1.53;;;;;;;8.48;100.00;98360.78;5057027;28;20238;-82
2023/10/15 04:21:20;;;;;;;1.87;1.43;;;;;;;8.50;100.00;98362.38;5057067;28;20232;-82
2023/10/15 04:23:52;;;;;;;2.47;1.47;;;;;;;8.48;100.00;98366.91;5057027;28;20219;-82
2023/10/15 04:26:22;;;;;;;4.43;1.77;;;;;;;8.45;100.00;98363.59;5057005;28;20250;-82
2023/10/15 04:28:52;;;;;;;3.57;1.60;;;;;;;8.46;100.00;98355.59;5056783;28;20227;-83
2023/10/15 04:31:22;;;;;;;2.37;1.60;;;;;;;8.40;100.00;98357.75;5056439;28;20702;-82
2023/10/15 04:33:51;;;;;;;2.70;1.50;;;;;;;8.33;100.00;98361.66;5054959;28;20338;-82
2023/10/15 04:36:17;;;;;;;2.77;1.50;;;;;;;8.32;100.00;98365.25;5056121;28;20704;-82
2023/10/15 04:38:44;;;;;;;7.10;1.80;;;;;;;8.41;100.00;98362.06;5055917;28;20239;-83
2023/10/15 04:41:11;;;;;;;2.67;1.60;;;;;;;8.46;100.00;98360.03;5056275;28;20594;-83
2023/10/15 04:43:45;;;;;;;2.63;1.50;;;;;;;8.51;100.00;98356.19;5055571;28;20220;-83
2023/10/15 04:46:17;;;;;;;3.23;1.70;;;;;;;8.52;100.00;98352.59;5056006;28;20214;-83
2023/10/15 04:48:46;;;;;;;4.60;1.80;;;;;;;8.55;100.00;98357.72;5056135;28;20212;-83
2023/10/15 04:51:13;;;;;;;1.63;1.20;;;;;;;8.51;100.00;98358.00;5055680;28;20722;-83
2023/10/15 04:53:42;;;;;;;2.03;1.50;;;;;;;8.49;100.00;98344.03;5055578;28;20552;-83
2023/10/15 04:56:09;;;;;;;3.80;1.70;;;;;;;8.53;100.00;98350.84;5055753;28;20215;-83
2023/10/15 04:58:39;;;;;;;2.57;1.40;;;;;;;8.51;100.00;98355.34;5055729;28;20204;-83
2023/10/15 05:01:06;;;;;;;3.70;1.30;;;;;;;8.50;100.00;98353.66;5055560;28;20308;-82
2023/10/15 05:03:32;;;;;;;4.90;1.70;;;;;;;8.49;100.00;98357.19;5055519;28;20204;-82
2023/10/15 05:06:04;;;;;;;3.83;1.20;;;;;;;8.49;100.00;98354.56;5056306;28;20220;-83
2023/10/15 05:08:32;;;;;;;2.47;1.40;;;;;;;8.49;100.00;98349.31;5056154;28;20827;-83
2023/10/15 05:10:58;;;;;;;2.00;1.50;;;;;;;8.48;100.00;98364.28;5056369;28;20771;-82
2023/10/15 05:13:26;;;;;;;1.93;1.57;;;;;;;8.46;100.00;98360.03;5055823;28;20212;-82
2023/10/15 05:15:52;;;;;;;4.50;1.90;;;;;;;8.55;100.00;98375.28;5055782;28;20250;-82
2023/10/15 05:18:19;;;;;;;2.37;1.70;;;;;;;8.57;100.00;98370.81;5056239;28;20204;-84
2023/10/15 05:20:52;;;;;;;3.67;1.90;;;;;;;8.57;100.00;98374.28;5056672;28;20600;-83
2023/10/15 05:23:20;;;;;;;5.23;1.80;;;;;;;8.54;100.00;98374.47;5055572;28;20212;-81
2023/10/15 05:25:49;;;;;;;4.23;1.70;;;;;;;8.59;100.00;98366.28;5055298;28;20671;-82
2023/10/15 05:28:15;;;;;;;2.33;1.20;;;;;;;8.57;100.00;98366.38;5055955;28;20299;-82
2023/10/15 05:30:42;;;;;;;1.80;1.40;;;;;;;8.52;100.00;98370.22;5055977;28;20219;-82
2023/10/15 05:33:09;;;;;;;4.77;1.67;;;;;;;8.53;100.00;98371.91;5054786;28;20208;-82
2023/10/15 05:35:37;;;;;;;3.33;1.67;;;;;;;8.50;100.00;98370.28;5055672;28;20721;-83
2023/10/15 05:38:08;;;;;;;2.43;1.40;;;;;;;8.48;100.00;98368.69;5055288;28;20266;-82
2023/10/15 05:40:35;;;;;;;5.50;1.70;;;;;;;8.49;100.00;98375.63;5055262;28;20309;-83
2023/10/15 05:43:02;;;;;;;3.77;1.70;;;;;;;8.44;100.00;98381.19;5055489;28;20222;-81
2023/10/15 05:45:28;;;;;;;4.07;1.77;;;;;;;8.45;100.00;98385.50;5055582;28;20204;-83
2023/10/15 05:47:55;;;;;;;2.90;1.40;;;;;;;8.49;100.00;98386.19;5054752;28;20559;-81
2023/10/15 05:50:21;;;;;;;5.33;1.73;;;;;;;8.46;100.00;98392.47;5055021;28;20204;-83
2023/10/15 05:52:50;;;;;;;2.70;1.60;;;;;;;8.51;100.00;98400.97;5054682;28;20278;-81
2023/10/15 05:55:17;;;;;;;3.03;1.47;;;;;;;8.55;100.00;98407.75;5055001;28;20727;-81
2023/10/15 05:57:46;;;;;;;2.10;1.37;;;;;;;8.56;100.00;98401.56;5054987;28;20210;-83
2023/10/15 06:00:19;;;;;;;5.13;1.67;;;;;;;8.61;100.00;98407.41;5055067;28;20601;-81
2023/10/15 06:02:46;;;;;;;1.63;1.47;;;;;;;8.64;100.00;98401.13;5054146;28;20228;-81
2023/10/15 06:05:13;;;;;;;2.67;1.70;;;;;;;8.66;100.00;98393.97;5055161;28;20218;-81
2023/10/15 06:07:40;;;;;;;4.70;1.40;;;;;;;8.66;100.00;98393.97;5054807;28;20573;-83
2023/10/15 06:10:08;;;;;;;2.93;1.60;;;;;;;8.62;100.00;98393.31;5054033;28;20207;-82
2023/10/15 06:12:34;;;;;;;3.20;1.63;;;;;;;8.60;100.00;98402.22;5053481;28;20295;-82
2023/10/15 06:15:04;;;;;;;3.70;1.70;;;;;;;8.60;100.00;98410.13;5054428;28;20211;-82
2023/10/15 06:17:30;;;;;;;3.77;1.50;;;;;;;8.61;100.00;98409.19;5053384;28;20338;-82
2023/10/15 06:19:57;;;;;;;4.47;1.90;;;;;;;8.61;100.00;98406.56;5052831;28;20605;-82
2023/10/15 06:22:23;;;;;;;5.00;1.60;;;;;;;8.62;100.00;98416.19;5053683;28;20321;-83
2023/10/15 06:24:50;;;;;;;4.37;1.93;;;;;;;8.62;100.00;98413.56;5052741;28;20206;-81
2023/10/15 06:27:18;;;;;;;3.63;1.73;;;;;;;8.64;100.00;98422.19;5053390;28;20215;-81
2023/10/15 06:29:44;;;;;;;3.43;1.47;;;;;;;8.62;100.00;98422.28;5053020;28;20210;-82
2023/10/15 06:32:12;;;;;;;3.03;1.50;;;;;;;8.54;100.00;98418.38;5051875;28;20224;-82
2023/10/15 06:34:39;;;;;;;3.23;1.80;;;;;;;8.58;100.00;98425.19;5053183;28;20625;-81
2023/10/15 06:37:08;;;;;;;3.83;1.57;;;;;;;8.54;100.00;98435.06;5052988;28;20219;-81
2023/10/15 06:39:34;;;;;;;3.83;2.20;;;;;;;8.59;100.00;98434.78;5052404;28;20232;-81
2023/10/15 06:42:01;;;;;;;3.10;1.60;;;;;;;8.68;100.00;98434.25;5052467;28;20741;-82
2023/10/15 06:44:27;;;;;;;4.93;1.90;;;;;;;8.75;100.00;98440.91;5052599;28;20752;-82
2023/10/15 06:46:54;;;;;;;4.50;1.83;;;;;;;8.80;100.00;98434.41;5052294;28;20219;-82
2023/10/15 06:49:22;;;;;;;3.23;2.13;;;;;;;8.91;100.00;98442.56;5053816;28;20212;-82
2023/10/15 06:51:48;;;;;;;5.27;1.70;;;;;;;9.04;100.00;98443.53;5052494;28;20232;-82
2023/10/15 06:54:16;;;;;;;3.60;2.03;;;;;;;9.11;100.00;98449.31;5054314;28;20214;-82
2023/10/15 06:56:42;;;;;;;3.37;1.90;;;;;;;9.14;100.00;98451.75;5053588;28;20257;-83
2023/10/15 06:59:10;;;;;;;6.23;2.10;;;;;;;9.20;100.00;98459.31;5035324;28;20208;-81
2023/10/15 07:01:38;;;;;;;3.83;2.63;;;;;;;9.26;100.00;98459.81;5052570;28;20240;-81
2023/10/15 07:04:07;;;;;;;3.50;2.27;;;;;;;9.27;100.00;98450.09;5053085;28;20208;-81
2023/10/15 07:06:35;;;;;;;4.03;1.70;;;;;;;9.29;100.00;98445.56;5053677;28;20251;-81
2023/10/15 07:09:02;;;;;;;2.73;1.53;;;;;;;9.30;100.00;98447.31;5053826;28;20204;-83
2023/10/15 07:11:29;;;;;;;3.37;1.90;;;;;;;9.39;100.00;98449.38;5052820;28;20227;-79
2023/10/15 07:13:56;;;;;;;3.53;1.70;;;;;;;9.45;100.00;98455.16;5051971;28;20250;-82
2023/10/15 07:16:22;;;;;;;3.00;1.83;;;;;;;9.52;100.00;98456.47;5052987;28;20223;-82
2023/10/15 07:18:49;;;;;;;4.30;1.70;;;;;;;9.65;100.00;98461.84;5053085;28;20222;-82
2023/10/15 07:21:15;;;;;;;3.70;2.00;;;;;;;9.77;100.00;98455.84;5054522;28;20329;-82
2023/10/15 07:23:43;;;;;;;2.53;1.73;;;;;;;9.82;100.00;98454.63;5055879;28;20682;-82
2023/10/15 07:26:09;;;;;;;5.97;1.90;;;;;;;9.89;100.00;98461.22;5056094;28;20214;-82
2023/10/15 07:28:36;;;;;;;4.27;1.93;;;;;;;9.93;100.00;98461.88;5056709;28;20206;-82
2023/10/15 07:31:05;;;;;;;4.17;1.80;;;;;;;9.95;100.00;98465.28;5056661;28;20227;-82
2023/10/15 07:33:32;;;;;;;3.23;1.73;;;;;;;9.90;100.00;98462.09;5055453;28;20745;-82
2023/10/15 07:36:01;;;;;;;4.57;1.83;;;;;;;9.78;100.00;98465.47;5056237;28;20237;-82
2023/10/15 07:38:28;;;;;;;3.50;1.97;;;;;;;9.76;100.00;98470.84;5055772;28;20212;-82
2023/10/15 07:40:56;;;;;;;4.20;1.90;;;;;;;9.70;100.00;98476.50;5054172;28;20235;-81
2023/10/15 07:43:22;;;;;;;3.33;1.90;;;;;;;9.63;100.00;98463.75;5055330;28;20216;-81
2023/10/15 07:45:49;;;;;;;5.87;1.73;;;;;;;9.53;100.00;98467.88;5057189;28;20651;-81
2023/10/15 07:48:16;;;;;;;5.23;1.77;;;;;;;9.49;100.00;98485.66;5056976;28;20667;-82
2023/10/15 07:50:45;;;;;;;4.23;1.70;;;;;;;9.65;100.00;98485.59;5056974;28;20208;-82
2023/10/15 07:53:12;;;;;;;2.87;1.70;;;;;;;9.75;100.00;98479.72;5056456;28;20610;-82
2023/10/15 07:55:39;;;;;;;5.67;2.40;;;;;;;9.94;100.00;98482.06;5056219;28;20216;-81
2023/10/15 07:58:09;;;;;;;3.80;2.10;;;;;;;10.20;100.00;98476.03;5055401;28;20211;-82
2023/10/15 08:00:36;;;;;;;3.50;1.77;;;;;;;10.56;100.00;98476.38;5056343;28;20235;-82
2023/10/15 08:03:07;;;;;;;6.47;1.80;;;;;;;10.76;100.00;98470.69;5056409;28;20668;-82
2023/10/15 08:05:36;;;;;;;2.80;1.53;;;;;;;10.82;100.00;98475.56;5057398;28;20189;-81
2023/10/15 08:08:04;;;;;;;3.83;1.60;;;;;;;10.86;100.00;98479.69;5055949;28;20444;-81
2023/10/15 08:10:33;;;;;;;2.50;1.60;;;;;;;11.03;100.00;98463.59;5056844;28;20208;-81
2023/10/15 08:13:00;;;;;;;5.50;2.17;;;;;;;11.21;100.00;98467.66;5057743;28;20204;-81
2023/10/15 08:15:28;;;;;;;2.73;1.60;;;;;;;11.26;100.00;98460.28;5058085;28;20605;-81
2023/10/15 08:17:57;;;;;;;5.10;1.40;;;;;;;11.25;100.00;98454.13;5058266;28;20204;-81
2023/10/15 08:20:23;;;;;;;2.83;1.60;;;;;;;11.36;100.00;98462.19;5058186;28;20720;-81
2023/10/15 08:22:50;;;;;;;2.97;1.70;;;;;;;11.41;100.00;98456.59;5056770;28;20783;-81
2023/10/15 08:25:21;;;;;;;5.27;1.57;;;;;;;11.46;100.00;98451.84;5058548;28;20208;-82
2023/10/15 08:27:48;;;;;;;3.80;1.50;;;;;;;11.62;99.33;98455.19;5057427;28;20294;-81
2023/10/15 08:30:17;;;;;;;2.67;1.23;;;;;;;11.53;99.18;98455.75;5059231;28;20208;-82
2023/10/15 08:32:46;;;;;;;5.23;1.83;;;;;;;11.68;99.22;98452.13;5057287;28;20238;-82
2023/10/15 08:35:14;;;;;;;5.03;1.43;;;;;;;11.78;98.08;98445.22;5058463;28;20204;-80
2023/10/15 08:37:41;;;;;;;3.83;1.70;;;;;;;11.95;93.92;98445.75;5059561;28;20204;-81
2023/10/15 08:40:15;;;;;;;4.33;1.60;;;;;;;12.00;89.26;98437.47;5058247;28;20236;-81
2023/10/15 08:42:44;;;;;;;4.73;1.40;;;;;;;11.88;89.39;98438.34;5069207;28;20238;-81
2023/10/15 08:45:11;;;;;;;3.43;1.40;;;;;;;11.71;86.30;98433.34;5068894;28;20234;-83
2023/10/15 08:47:37;;;;;;;3.07;1.20;;;;;;;11.70;86.78;98442.25;5070673;28;20207;-78
2023/10/15 08:50:10;;;;;;;4.10;1.40;;;;;;;11.64;90.35;98461.22;5068236;28;20205;-82
2023/10/15 08:52:37;;;;;;;4.13;1.73;;;;;;;11.65;89.05;98461.13;5047880;28;20311;-82
2023/10/15 08:55:06;;;;;;;2.87;1.67;;;;;;;11.60;88.79;98455.28;5055156;28;20204;-82
2023/10/15 08:57:34;;;;;;;3.73;2.13;;;;;;;11.49;87.87;98449.00;5054905;28;20220;-82
2023/10/15 09:00:03;;;;;;;3.27;1.33;;;;;;;11.34;86.62;98442.06;5054880;28;20240;-82
2023/10/15 09:02:31;;;;;;;3.20;1.43;;;;;;;11.10;87.81;98460.44;5054887;28;20268;-83
2023/10/15 09:04:58;;;;;;;3.80;1.80;;;;;;;10.93;90.03;98471.28;5056275;28;20243;-82
2023/10/15 09:07:27;;;;;;;3.87;1.50;;;;;;;10.71;93.40;98478.88;5055899;28;20208;-81
2023/10/15 09:09:54;;;;;;;3.87;1.50;;;;;;;10.66;95.90;98486.28;5055661;28;20298;-82
2023/10/15 09:12:22;;;;;;;4.60;2.63;;;;;;;10.76;96.19;98475.97;5054010;28;20224;-82
2023/10/15 09:14:49;;;;;;;2.37;1.00;;;;;;;10.78;97.17;98489.94;5055337;28;20216;-82
2023/10/15 09:17:17;;;;;;;4.73;1.30;;;;;;;10.74;93.83;98477.84;5054943;28;20542;-82
2023/10/15 09:19:46;;;;;;;3.23;1.27;;;;;;;10.64;95.02;98474.13;5055032;28;20236;-82
2023/10/15 09:22:15;;;;;;;3.60;1.27;;;;;;;10.49;94.71;98470.66;5053623;28;20240;-82
2023/10/15 09:24:52;;;;;;;5.83;1.20;;;;;;;10.46;94.69;98473.47;5054936;28;20729;-82
2023/10/15 09:27:20;;;;;;;3.37;1.10;;;;;;;10.57;95.00;98475.44;5054949;28;20273;-82
2023/10/15 09:29:47;;;;;;;4.67;1.23;;;;;;;10.85;93.16;98475.38;5055429;28;20204;-82
2023/10/15 09:32:13;;;;;;;4.13;1.27;;;;;;;10.93;91.64;98468.63;5053631;28;20227;-82
2023/10/15 09:34:40;;;;;;;5.83;1.30;;;;;;;11.11;90.93;98469.22;5054954;28;20218;-82
2023/10/15 09:37:07;;;;;;;3.03;1.07;;;;;;;11.34;87.26;98461.47;5054659;28;20211;-82
2023/10/15 09:39:35;;;;;;;2.83;1.00;;;;;;;11.51;84.27;98455.03;5055264;28;20222;-82
2023/10/15 09:42:03;;;;;;;4.67;1.60;;;;;;;11.60;82.09;98455.28;5052803;28;20296;-82
2023/10/15 09:44:32;;;;;;;2.13;1.00;;;;;;;11.65;79.92;98436.44;5054497;28;20541;-82
2023/10/15 09:46:59;;;;;;;4.03;1.20;;;;;;;11.74;81.41;98443.75;5054240;28;20204;-82
2023/10/15 09:49:26;;;;;;;3.70;1.30;;;;;;;11.93;77.01;98436.22;5054253;28;20208;-82
2023/10/15 09:51:53;;;;;;;3.33;0.97;;;;;;;11.99;76.53;98435.78;5054200;28;20229;-82
2023/10/15 09:54:21;;;;;;;4.23;1.10;;;;;;;12.15;74.06;98425.78;5054264;28;20216;-82
2023/10/15 09:56:50;;;;;;;2.30;1.37;;;;;;;11.92;72.35;98429.25;5054790;28;20219;-81
2023/10/15 09:59:20;;;;;;;2.17;0.73;;;;;;;11.84;71.41;98418.31;5054489;28;20598;-81
2023/10/15 10:01:51;;;;;;;2.17;0.80;;;;;;;11.65;72.95;98437.28;5053408;28;20686;-82
2023/10/15 10:04:42;;;;;;;6.27;1.40;;;;;;;11.68;76.36;98449.47;5054804;28;20254;-82
2023/10/15 10:07:35;;;;;;;3.73;0.87;;;;;;;11.60;75.36;98444.69;5054266;28;20208;-82
2023/10/15 10:10:35;;;;;;;3.40;0.80;;;;;;;11.57;75.35;98444.03;5054132;28;20600;-82
2023/10/15 10:13:24;;;;;;;2.53;1.00;;;;;;;11.53;74.48;98432.78;5053648;28;20218;-81
2023/10/15 10:15:55;;;;;;;4.77;0.80;;;;;;;11.40;76.91;98452.25;5054584;28;20558;-82
2023/10/15 10:18:25;;;;;;;3.43;1.10;;;;;;;11.50;79.49;98470.03;5055234;28;20245;-81
2023/10/15 10:20:52;;;;;;;3.40;1.20;;;;;;;11.77;79.25;98472.66;5054528;28;20232;-81
2023/10/15 10:23:19;;;;;;;2.53;1.00;;;;;;;12.16;81.02;98475.22;5053630;28;20206;-81
2023/10/15 10:25:49;;;;;;;2.03;0.97;;;;;;;12.55;74.30;98436.13;5054061;28;20572;-81
2023/10/15 10:28:18;;;;;;;1.33;0.97;;;;;;;12.61;71.46;98430.38;5053830;28;20211;-81
2023/10/15 10:30:55;;;;;;;2.37;1.10;;;;;;;12.35;74.85;98457.06;5054221;28;20208;-81
2023/10/15 10:33:48;;;;;;;1.80;0.80;;;;;;;11.57;73.20;98454.59;5054038;28;20680;-82
2023/10/15 10:36:21;;;;;;;1.47;1.00;;;;;;;10.62;80.57;98484.78;5055303;28;20212;-83
2023/10/15 10:38:59;;;;;;;2.47;0.90;;;;;;;9.99;88.96;98512.53;5055613;28;20214;-83
2023/10/15 10:41:34;;;;;;;2.10;0.80;;;;;;;9.46;88.68;98498.19;5053488;28;20240;-82
2023/10/15 10:44:00;;;;;;;2.80;1.17;;;;;;;9.18;97.90;98513.94;5053782;28;20211;-80
2023/10/15 10:46:27;;;;;;;4.43;1.20;;;;;;;9.01;100.00;98509.63;5054727;28;20555;-82
2023/10/15 10:49:05;;;;;;;1.67;0.70;;;;;;;8.82;100.00;98506.31;5054538;28;20263;-82
2023/10/15 10:51:33;;;;;;;1.27;0.90;;;;;;;8.68;100.00;98505.38;5054360;28;20231;-83
2023/10/15 10:54:25;;;;;;;2.73;1.03;;;;;;;8.59;100.00;98508.56;5056214;28;20554;-82
2023/10/15 10:57:08;;;;;;;2.13;1.03;;;;;;;8.44;100.00;98504.97;5057432;28;20212;-82
2023/10/15 10:59:36;;;;;;;2.03;1.00;;;;;;;8.46;100.00;98504.91;5059320;28;20234;-82
2023/10/15 11:02:07;;;;;;;2.10;1.00;;;;;;;8.48;100.00;98503.88;5058636;28;20246;-83
2023/10/15 11:04:33;;;;;;;5.00;1.40;;;;;;;8.51;100.00;98505.50;5059790;28;20246;-84
2023/10/15 11:07:01;;;;;;;2.00;1.40;;;;;;;8.58;100.00;98507.69;5060612;28;20208;-81
2023/10/15 11:09:28;;;;;;;4.40;1.90;;;;;;;8.74;100.00;98518.22;5060102;28;20620;-82
2023/10/15 11:11:56;;;;;;;4.90;1.63;;;;;;;8.87;100.00;98514.00;5060875;28;20259;-82
2023/10/15 11:14:24;;;;;;;3.90;1.60;;;;;;;9.16;100.00;98511.38;5062437;28;20215;-84
2023/10/15 11:16:51;;;;;;;4.20;1.37;;;;;;;9.54;100.00;98509.16;5059942;28;20221;-82
2023/10/15 11:19:21;;;;;;;4.00;1.30;;;;;;;9.84;100.00;98512.63;5060094;28;20208;-81
2023/10/15 11:21:48;;;;;;;2.10;1.47;;;;;;;10.05;100.00;98503.41;5058844;28;20242;-83
2023/10/15 11:24:16;;;;;;;2.83;1.33;;;;;;;10.38;100.00;98493.38;5058290;28;20306;-82
2023/10/15 11:26:44;;;;;;;4.47;1.30;;;;;;;10.69;100.00;98490.50;5057992;28;20210;-80
2023/10/15 11:29:11;;;;;;;3.23;1.50;;;;;;;10.88;100.00;98476.00;5056771;28;20210;-81
2023/10/15 11:31:42;;;;;;;3.47;1.20;;;;;;;11.08;100.00;98478.19;5056653;28;20229;-81
2023/10/15 11:34:10;;;;;;;2.43;1.27;;;;;;;11.08;100.00;98478.19;5057503;28;20214;-80
2023/10/15 11:36:43;;;;;;;3.23;1.10;;;;;;;11.14;91.17;98450.50;5055911;28;20655;-80
2023/10/15 11:39:18;;;;;;;3.03;0.90;;;;;;;11.09;93.23;98477.28;5056268;28;20588;-85
2023/10/15 11:41:49;;;;;;;1.90;1.05;;;;;;;11.05;94.44;98477.53;5056826;28;20455;-83
2023/10/15 11:44:16;;;;;;;2.93;0.90;;;;;;;10.79;85.94;98444.03;5055511;28;20624;-82